Rogers, Connecticut
Current Conditions -  °F | °C
As of 12:52 AM on Wednesday 26 Nov 2014 (Local Time) from KIJD Reporting Station
Clear Clear  
Wind Chill: 40°   Ceiling: Unl
Heat Index: 40°   Visibility: 10mi
Dew Point: 34°   Wind: 0mph
Humidity: 79%   Direction: NA
Pressure: 30.14"   Gusts: NA
Location:  41.84°N, 71.91°W
Report Text: KIJD 260552Z AUTO 00000KT 10SM CLR 04/01 A3014 RMK AO2 SLP207 T00440011 10072 20028 51014
Loading
Personal Weather Stations






























Interactive Weather Map New forecast layout! Learn more

10-Day Weather Forecast

Advertisements
Track Severe Weather on mobile